Time;durP1;ratioP1;P1;durP2;ratioP2;P2;SDS_P1;SDS_P2;PMS_P1;PMS_P2;Temp;Humidity;BMP_temperature;BMP_pressure;BME280_temperature;BME280_humidity;BME280_pressure;Samples;Min_cycle;Max_cycle;Signal;HPM_P1;HPM_P2
2021/06/03 00:00:29;;;;;;;3.22;1.70;;;21.90;55.50;;;;;;2063592;28;20061;-68
2021/06/03 00:01:30;;;;;;;1.65;1.55;;;21.90;54.40;;;;;;2063408;28;20520;-68
2021/06/03 00:02:31;;;;;;;2.45;2.00;;;21.90;55.00;;;;;;2062690;28;20030;-68
2021/06/03 00:03:35;;;;;;;2.55;1.48;;;21.90;55.10;;;;;;2070623;28;20030;-68
2021/06/03 00:04:35;;;;;;;3.78;1.75;;;21.90;55.10;;;;;;2070625;28;20042;-68
2021/06/03 00:05:45;;;;;;;2.60;2.20;;;21.90;55.60;;;;;;2063512;28;20505;-68
2021/06/03 00:06:46;;;;;;;1.90;1.80;;;21.90;56.70;;;;;;2062246;28;20546;-68
2021/06/03 00:07:47;;;;;;;3.05;1.80;;;21.80;56.30;;;;;;2054344;28;20399;-68
2021/06/03 00:08:47;;;;;;;2.25;1.80;;;21.90;56.50;;;;;;2060381;28;20034;-68
2021/06/03 00:09:48;;;;;;;2.00;1.80;;;21.80;57.20;;;;;;2063844;28;20483;-68
2021/06/03 00:11:02;;;;;;;2.58;1.80;;;21.80;57.20;;;;;;2071165;28;20416;-67
2021/06/03 00:12:03;;;;;;;2.38;2.17;;;21.80;56.90;;;;;;2069318;28;20081;-67
2021/06/03 00:13:05;;;;;;;3.20;1.95;;;21.80;57.00;;;;;;2062882;28;20025;-68
2021/06/03 00:14:06;;;;;;;1.48;1.38;;;21.80;58.00;;;;;;2063200;28;20089;-68
2021/06/03 00:15:10;;;;;;;1.70;1.60;;;21.80;57.60;;;;;;2062864;28;20038;-68
2021/06/03 00:16:13;;;;;;;2.03;1.70;;;21.80;57.00;;;;;;2062807;28;20018;-68
2021/06/03 00:17:13;;;;;;;2.30;1.65;;;21.70;57.50;;;;;;2062836;28;20015;-68
2021/06/03 00:18:16;;;;;;;3.08;1.55;;;21.70;57.60;;;;;;2063347;28;20072;-68
2021/06/03 00:19:19;;;;;;;1.50;1.40;;;21.70;57.80;;;;;;2054401;28;20015;-68
2021/06/03 00:20:25;;;;;;;2.00;1.90;;;21.70;58.00;;;;;;2055235;28;20026;-67
2021/06/03 00:21:25;;;;;;;2.63;2.00;;;21.70;58.90;;;;;;2062807;28;20030;-68
2021/06/03 00:22:27;;;;;;;1.83;1.70;;;21.70;59.80;;;;;;2061083;28;20224;-68
2021/06/03 00:23:28;;;;;;;2.70;1.50;;;21.70;59.10;;;;;;2070235;28;20416;-68
2021/06/03 00:24:28;;;;;;;2.15;1.98;;;21.70;59.10;;;;;;2071932;28;20073;-68
2021/06/03 00:25:29;;;;;;;4.38;1.50;;;21.70;59.60;;;;;;2070981;28;20171;-68
2021/06/03 00:26:31;;;;;;;2.38;1.92;;;21.70;59.90;;;;;;2062816;28;20189;-68
2021/06/03 00:27:32;;;;;;;7.45;1.85;;;21.60;59.80;;;;;;2062594;28;20088;-68
2021/06/03 00:28:32;;;;;;;2.55;2.00;;;21.60;59.80;;;;;;2070677;28;20029;-68
2021/06/03 00:29:33;;;;;;;3.42;2.05;;;21.60;60.20;;;;;;2063032;28;20381;-68
2021/06/03 00:30:34;;;;;;;2.55;1.90;;;21.60;61.00;;;;;;2063168;28;20026;-68
2021/06/03 00:31:35;;;;;;;2.72;1.63;;;21.60;61.90;;;;;;2063291;28;20069;-68
2021/06/03 00:32:37;;;;;;;2.13;1.85;;;21.60;61.40;;;;;;2062729;28;20022;-68
2021/06/03 00:33:37;;;;;;;1.80;1.70;;;21.60;61.70;;;;;;2063407;28;20033;-68
2021/06/03 00:34:38;;;;;;;4.07;1.98;;;21.60;62.10;;;;;;2063162;28;20117;-68
2021/06/03 00:35:40;;;;;;;1.70;1.60;;;21.50;62.60;;;;;;2062859;28;20081;-68
2021/06/03 00:36:42;;;;;;;2.85;1.90;;;21.50;61.70;;;;;;2065262;28;20022;-68
2021/06/03 00:37:44;;;;;;;2.95;2.10;;;21.50;61.80;;;;;;2057015;28;20415;-68
2021/06/03 00:38:44;;;;;;;4.88;2.00;;;21.50;62.30;;;;;;2054163;28;20022;-68
2021/06/03 00:39:45;;;;;;;2.63;1.98;;;21.50;63.10;;;;;;2062366;28;20023;-68
2021/06/03 00:40:46;;;;;;;2.42;2.20;;;21.40;62.90;;;;;;2063365;28;20037;-67
2021/06/03 00:41:46;;;;;;;3.28;1.50;;;21.40;63.70;;;;;;2063243;28;20105;-68
2021/06/03 00:42:48;;;;;;;2.00;1.77;;;21.40;64.60;;;;;;2062777;28;20112;-68
2021/06/03 00:43:49;;;;;;;3.03;1.73;;;21.40;64.20;;;;;;2070487;28;20033;-68
2021/06/03 00:44:51;;;;;;;5.18;2.10;;;21.40;65.30;;;;;;2069996;28;20497;-68
2021/06/03 00:45:52;;;;;;;3.45;1.83;;;21.40;65.70;;;;;;2069946;28;20498;-68
2021/06/03 00:46:52;;;;;;;2.30;1.92;;;21.40;66.50;;;;;;2070593;28;20484;-68
2021/06/03 00:47:54;;;;;;;4.22;1.75;;;21.40;67.00;;;;;;2063274;28;20026;-68
2021/06/03 00:48:55;;;;;;;2.92;1.73;;;21.30;67.30;;;;;;2062973;28;20106;-68
2021/06/03 00:49:55;;;;;;;3.72;2.17;;;21.40;67.20;;;;;;2063256;28;20037;-68
2021/06/03 00:50:59;;;;;;;4.70;2.13;;;21.30;68.20;;;;;;2062773;28;20065;-68
2021/06/03 00:52:00;;;;;;;1.52;1.42;;;21.30;67.90;;;;;;2063147;28;20029;-68
2021/06/03 00:53:03;;;;;;;1.70;1.60;;;21.30;68.20;;;;;;2060739;28;20065;-68
2021/06/03 00:54:04;;;;;;;1.88;1.58;;;21.30;68.40;;;;;;2059380;28;20097;-68
2021/06/03 00:55:07;;;;;;;2.22;1.85;;;21.30;68.50;;;;;;2070098;28;20137;-68
2021/06/03 00:56:08;;;;;;;2.03;1.70;;;21.30;68.50;;;;;;2077201;28;20123;-68
2021/06/03 00:57:09;;;;;;;2.20;1.70;;;21.30;69.00;;;;;;2078522;28;20485;-68
2021/06/03 00:58:10;;;;;;;2.45;1.90;;;21.30;69.80;;;;;;2070855;28;20034;-68
2021/06/03 00:59:11;;;;;;;2.03;1.60;;;21.30;70.80;;;;;;2062050;28;20027;-68
2021/06/03 01:00:17;;;;;;;2.10;2.00;;;21.30;71.10;;;;;;2063444;28;20665;-67
2021/06/03 01:01:17;;;;;;;2.10;1.90;;;21.30;72.40;;;;;;2062420;28;20030;-67
2021/06/03 01:02:18;;;;;;;2.47;1.98;;;21.30;72.50;;;;;;2062145;28;20642;-67
2021/06/03 01:03:20;;;;;;;4.40;1.90;;;21.20;72.00;;;;;;2063043;28;20042;-68
2021/06/03 01:04:21;;;;;;;5.28;1.83;;;21.20;72.10;;;;;;2062075;28;20037;-67
2021/06/03 01:05:35;;;;;;;3.22;1.73;;;21.20;71.90;;;;;;2062139;28;20073;-68
2021/06/03 01:06:37;;;;;;;2.30;2.20;;;21.20;72.80;;;;;;2070019;28;20033;-68
2021/06/03 01:07:39;;;;;;;2.50;1.90;;;21.20;72.40;;;;;;2068645;28;20537;-68
2021/06/03 01:08:50;;;;;;;2.58;2.17;;;21.20;72.40;;;;;;2053220;28;20035;-68
2021/06/03 01:10:04;;;;;;;1.73;1.50;;;21.30;72.50;;;;;;2063325;28;20470;-68
2021/06/03 01:11:20;;;;;;;2.03;1.75;;;21.20;74.20;;;;;;2059911;28;20630;-68
2021/06/03 01:12:41;;;;;;;1.98;1.67;;;21.20;75.50;;;;;;2063748;28;20018;-68
2021/06/03 01:13:56;;;;;;;3.72;2.13;;;21.20;76.50;;;;;;2053872;28;20085;-68
2021/06/03 01:15:01;;;;;;;1.98;1.75;;;21.20;75.30;;;;;;2056415;28;20101;-68
2021/06/03 01:16:04;;;;;;;3.90;1.80;;;21.20;75.00;;;;;;2063268;28;20011;-68
2021/06/03 01:17:06;;;;;;;3.40;1.83;;;21.30;75.40;;;;;;2070361;28;20014;-68
2021/06/03 01:18:07;;;;;;;5.72;1.90;;;21.30;76.00;;;;;;2070362;28;20053;-68
2021/06/03 01:19:14;;;;;;;3.47;1.75;;;21.30;76.10;;;;;;2063180;28;20015;-68
2021/06/03 01:20:17;;;;;;;1.90;1.80;;;21.30;76.20;;;;;;2063345;28;20475;-68
2021/06/03 01:21:42;;;;;;;2.55;2.03;;;21.30;76.50;;;;;;2070368;28;20052;-68
2021/06/03 01:22:54;;;;;;;3.35;1.92;;;21.30;77.90;;;;;;2047410;28;20133;-68
2021/06/03 01:24:21;;;;;;;2.78;1.83;;;21.30;78.80;;;;;;2055215;28;20029;-68
2021/06/03 01:25:25;;;;;;;1.77;1.67;;;21.30;80.80;;;;;;2062445;28;20056;-68
2021/06/03 01:26:26;;;;;;;4.80;1.90;;;21.30;79.00;;;;;;2062248;28;20027;-68
2021/06/03 01:27:31;;;;;;;2.17;1.80;;;21.30;77.80;;;;;;2062992;28;20025;-68
2021/06/03 01:28:33;;;;;;;2.40;1.88;;;21.30;79.60;;;;;;2062654;28;20060;-67
2021/06/03 01:30:06;;;;;;;2.20;2.00;;;21.40;79.80;;;;;;2062801;28;20030;-68
2021/06/03 01:31:07;;;;;;;4.03;1.92;;;21.40;82.30;;;;;;2063012;28;20073;-68
2021/06/03 01:32:09;;;;;;;1.92;1.83;;;21.40;79.80;;;;;;2063015;28;20956;-68
2021/06/03 01:33:12;;;;;;;2.92;1.90;;;21.40;80.10;;;;;;2062836;28;20106;-68
2021/06/03 01:34:14;;;;;;;2.28;2.10;;;21.40;80.40;;;;;;2062834;28;20564;-68
2021/06/03 01:35:23;;;;;;;2.67;2.33;;;21.40;80.80;;;;;;2063345;28;20026;-68
2021/06/03 01:36:24;;;;;;;2.55;2.08;;;21.40;81.90;;;;;;2062189;28;20423;-68
2021/06/03 01:37:25;;;;;;;2.08;1.92;;;21.40;81.00;;;;;;2063126;28;20026;-68
2021/06/03 01:38:29;;;;;;;3.03;2.10;;;21.40;81.70;;;;;;2062591;28;20027;-68
2021/06/03 01:39:31;;;;;;;2.90;1.60;;;21.50;82.60;;;;;;2060035;28;20380;-68
2021/06/03 01:40:34;;;;;;;1.88;1.60;;;21.50;82.50;;;;;;2062754;28;20542;-68
2021/06/03 01:41:35;;;;;;;2.13;1.90;;;21.50;82.70;;;;;;2063129;28;20468;-68
2021/06/03 01:42:37;;;;;;;2.40;2.05;;;21.40;82.20;;;;;;2062058;28;20034;-68
2021/06/03 01:43:41;;;;;;;6.57;2.47;;;21.40;82.60;;;;;;2062969;28;20034;-68
2021/06/03 01:44:42;;;;;;;2.22;1.80;;;21.50;83.40;;;;;;2062832;28;20116;-68
2021/06/03 01:45:43;;;;;;;2.85;1.85;;;21.50;83.60;;;;;;2063138;28;20563;-68
2021/06/03 01:46:44;;;;;;;2.53;1.70;;;21.50;84.10;;;;;;2063118;28;20034;-68
2021/06/03 01:47:46;;;;;;;2.30;2.10;;;21.50;84.10;;;;;;2070219;28;20081;-68
2021/06/03 01:48:48;;;;;;;2.85;1.85;;;21.50;84.30;;;;;;2069889;28;20109;-68
2021/06/03 01:49:49;;;;;;;1.98;1.50;;;21.50;84.80;;;;;;2062999;28;20030;-68
2021/06/03 01:50:52;;;;;;;2.70;2.15;;;21.50;85.60;;;;;;2062479;28;20089;-68
2021/06/03 01:52:00;;;;;;;2.03;1.92;;;21.50;85.70;;;;;;2062980;28;20124;-68
2021/06/03 01:53:01;;;;;;;3.53;1.70;;;21.50;86.20;;;;;;2062260;28;20383;-68
2021/06/03 01:54:02;;;;;;;1.95;1.50;;;21.50;86.00;;;;;;2062195;28;20026;-68
2021/06/03 01:55:05;;;;;;;2.80;2.00;;;21.50;85.80;;;;;;2062947;28;20061;-68
2021/06/03 01:56:12;;;;;;;2.67;2.00;;;21.50;86.20;;;;;;2062215;28;20121;-68
2021/06/03 01:57:13;;;;;;;2.00;1.90;;;21.40;86.50;;;;;;2061728;28;20026;-68
2021/06/03 01:58:17;;;;;;;2.95;1.70;;;21.40;86.90;;;;;;2060826;28;20027;-68
2021/06/03 01:59:17;;;;;;;2.17;2.03;;;21.40;87.30;;;;;;2059600;28;20037;-68
2021/06/03 02:00:20;;;;;;;3.05;1.80;;;21.40;87.80;;;;;;2070076;28;20046;-68
2021/06/03 02:01:21;;;;;;;2.40;2.20;;;21.40;88.00;;;;;;2071127;28;20026;-68
2021/06/03 02:02:22;;;;;;;2.95;2.20;;;21.40;88.60;;;;;;2063679;28;20077;-68
2021/06/03 02:03:24;;;;;;;2.33;2.13;;;21.40;88.80;;;;;;2063980;28;20487;-68
2021/06/03 02:04:25;;;;;;;1.95;1.85;;;21.40;88.20;;;;;;2064390;28;20041;-68
2021/06/03 02:05:26;;;;;;;3.15;2.00;;;21.40;89.20;;;;;;2062594;28;20023;-68
2021/06/03 02:06:27;;;;;;;2.70;2.50;;;21.40;89.90;;;;;;2064453;28;20073;-68
2021/06/03 02:07:27;;;;;;;4.18;2.00;;;21.40;89.80;;;;;;2064012;28;20300;-68
2021/06/03 02:08:28;;;;;;;2.78;1.95;;;21.30;90.40;;;;;;2063279;28;20167;-68
2021/06/03 02:09:28;;;;;;;1.80;1.70;;;21.30;90.50;;;;;;2063573;28;20027;-68
2021/06/03 02:10:29;;;;;;;1.88;1.77;;;21.30;90.20;;;;;;2064292;28;20838;-68
2021/06/03 02:11:30;;;;;;;2.35;2.15;;;21.30;88.80;;;;;;2064023;28;20030;-68
2021/06/03 02:12:33;;;;;;;2.50;1.90;;;21.30;90.60;;;;;;2063611;28;20041;-68
2021/06/03 02:13:46;;;;;;;2.65;2.00;;;21.30;90.90;;;;;;2063980;28;20072;-68
2021/06/03 02:14:50;;;;;;;4.07;2.03;;;21.20;91.70;;;;;;2071583;28;20048;-68
2021/06/03 02:16:09;;;;;;;2.45;2.20;;;21.20;91.10;;;;;;2071145;28;20026;-68
2021/06/03 02:17:18;;;;;;;2.83;1.88;;;21.20;91.50;;;;;;2064401;28;20451;-68
2021/06/03 02:18:22;;;;;;;3.00;2.00;;;21.10;91.60;;;;;;2063841;28;20042;-67
2021/06/03 02:19:41;;;;;;;2.33;2.13;;;21.10;90.10;;;;;;2063832;28;20026;-67
2021/06/03 02:20:44;;;;;;;2.45;1.95;;;21.10;92.10;;;;;;2064189;28;20425;-67
2021/06/03 02:21:47;;;;;;;2.50;1.90;;;21.00;85.60;;;;;;2063930;28;20031;-67
2021/06/03 02:22:50;;;;;;;3.92;2.28;;;21.00;87.10;;;;;;2063725;28;20037;-67
2021/06/03 02:23:51;;;;;;;3.38;2.22;;;21.00;89.40;;;;;;2064062;28;20069;-67
2021/06/03 02:24:52;;;;;;;2.33;2.10;;;21.00;91.00;;;;;;2064128;28;20026;-67
2021/06/03 02:25:59;;;;;;;2.40;2.25;;;21.00;91.60;;;;;;2064098;28;20049;-67
2021/06/03 02:27:00;;;;;;;2.50;2.08;;;21.00;92.20;;;;;;2063728;28;20018;-68
2021/06/03 02:28:03;;;;;;;2.58;2.03;;;21.00;90.80;;;;;;2063084;28;20030;-68
2021/06/03 02:29:04;;;;;;;2.30;2.05;;;20.90;91.30;;;;;;2064324;28;20026;-68
2021/06/03 02:30:06;;;;;;;3.90;1.90;;;20.90;92.30;;;;;;2063769;28;20474;-68
2021/06/03 02:31:08;;;;;;;2.22;1.80;;;20.90;92.30;;;;;;2063068;28;20054;-68
2021/06/03 02:32:09;;;;;;;2.50;2.30;;;20.90;92.00;;;;;;2063461;28;20042;-68
2021/06/03 02:33:09;;;;;;;2.95;1.90;;;20.90;91.60;;;;;;2064270;28;20034;-68
2021/06/03 02:34:10;;;;;;;2.60;2.40;;;20.80;92.00;;;;;;2063492;28;20073;-68
2021/06/03 02:35:11;;;;;;;2.42;2.20;;;20.80;92.90;;;;;;2064311;28;20024;-68
2021/06/03 02:36:12;;;;;;;2.90;2.10;;;20.80;92.90;;;;;;2063888;28;20022;-68
2021/06/03 02:37:16;;;;;;;1.88;1.77;;;20.80;91.70;;;;;;2064255;28;20067;-68
2021/06/03 02:38:29;;;;;;;2.60;2.22;;;20.80;91.50;;;;;;2063317;28;20018;-68
2021/06/03 02:39:30;;;;;;;2.97;2.55;;;20.70;92.50;;;;;;2064143;28;20363;-68
2021/06/03 02:40:31;;;;;;;2.47;2.10;;;20.70;91.80;;;;;;2064085;28;20065;-68
2021/06/03 02:41:33;;;;;;;3.03;2.30;;;20.70;92.00;;;;;;2063810;28;20101;-68
2021/06/03 02:42:34;;;;;;;5.20;2.47;;;20.60;93.80;;;;;;2063399;28;20034;-68
2021/06/03 02:43:36;;;;;;;2.50;2.30;;;20.60;94.00;;;;;;2064322;28;20490;-68
2021/06/03 02:44:41;;;;;;;4.50;2.17;;;20.60;93.60;;;;;;2062875;28;20553;-68
2021/06/03 02:45:41;;;;;;;2.17;1.77;;;20.60;93.30;;;;;;2056186;28;20035;-68
2021/06/03 02:46:42;;;;;;;6.03;2.63;;;20.50;92.70;;;;;;2062784;28;20430;-68
2021/06/03 02:47:43;;;;;;;2.83;1.90;;;20.50;93.40;;;;;;2065440;28;20034;-68
2021/06/03 02:48:44;;;;;;;3.13;2.20;;;20.50;92.70;;;;;;2065195;28;20025;-67
2021/06/03 02:49:45;;;;;;;2.30;2.13;;;20.50;93.60;;;;;;2065907;28;20386;-67
2021/06/03 02:50:46;;;;;;;3.95;2.83;;;20.50;94.70;;;;;;2065487;28;20038;-67
2021/06/03 02:51:46;;;;;;;2.50;2.25;;;20.50;95.20;;;;;;2065786;28;20025;-67
2021/06/03 02:52:47;;;;;;;2.50;2.20;;;20.50;94.40;;;;;;2064805;28;20042;-67
2021/06/03 02:53:48;;;;;;;3.03;2.72;;;20.50;95.30;;;;;;2065681;28;20109;-67
2021/06/03 02:54:49;;;;;;;2.97;2.30;;;20.50;95.70;;;;;;2065422;28;20490;-67
2021/06/03 02:55:49;;;;;;;2.10;2.00;;;20.40;95.00;;;;;;2065528;28;20401;-67
2021/06/03 02:56:50;;;;;;;3.03;2.75;;;20.40;94.10;;;;;;2061798;28;20514;-67
2021/06/03 02:57:51;;;;;;;2.22;2.08;;;20.40;95.00;;;;;;2065314;28;20030;-67
2021/06/03 02:58:52;;;;;;;2.38;2.15;;;20.40;93.30;;;;;;2065218;28;20026;-67
2021/06/03 02:59:52;;;;;;;3.45;2.10;;;20.40;93.60;;;;;;2065533;28;20061;-67
2021/06/03 03:00:53;;;;;;;2.92;2.15;;;20.40;95.00;;;;;;2065467;28;20033;-67
2021/06/03 03:01:54;;;;;;;3.67;2.30;;;20.30;96.10;;;;;;2064436;28;20033;-67
2021/06/03 03:02:54;;;;;;;2.58;2.35;;;20.30;96.00;;;;;;2063948;28;20030;-68
2021/06/03 03:03:55;;;;;;;3.70;2.45;;;20.30;95.80;;;;;;2063832;28;20054;-68
2021/06/03 03:04:55;;;;;;;3.63;2.60;;;20.30;96.60;;;;;;2062638;28;20022;-68
2021/06/03 03:05:56;;;;;;;4.63;2.53;;;20.30;97.10;;;;;;2063059;28;20037;-68
2021/06/03 03:06:57;;;;;;;2.65;2.25;;;20.30;96.90;;;;;;2062115;28;20050;-68
2021/06/03 03:07:57;;;;;;;2.58;2.38;;;20.30;96.70;;;;;;2063061;28;20482;-68
2021/06/03 03:08:58;;;;;;;2.30;2.20;;;20.30;97.40;;;;;;2063896;28;20054;-68
2021/06/03 03:10:00;;;;;;;2.45;1.88;;;20.20;96.40;;;;;;2071435;28;20026;-68
2021/06/03 03:11:02;;;;;;;5.95;2.42;;;20.20;96.20;;;;;;2071903;28;20022;-68
2021/06/03 03:12:03;;;;;;;2.95;2.53;;;20.20;96.60;;;;;;2063933;28;20023;-67
2021/06/03 03:13:05;;;;;;;2.70;2.50;;;20.20;96.00;;;;;;2063597;28;20030;-67
2021/06/03 03:14:05;;;;;;;2.55;2.35;;;20.20;95.30;;;;;;2063677;28;20487;-68
2021/06/03 03:15:07;;;;;;;2.63;2.42;;;20.20;96.60;;;;;;2064154;28;20368;-68
2021/06/03 03:16:08;;;;;;;4.07;2.60;;;20.20;96.80;;;;;;2063539;28;20025;-68
2021/06/03 03:17:08;;;;;;;2.97;2.78;;;20.20;97.70;;;;;;2063687;28;20041;-67
2021/06/03 03:18:09;;;;;;;3.10;2.60;;;20.20;97.60;;;;;;2063866;28;20109;-67
2021/06/03 03:19:10;;;;;;;3.55;2.53;;;20.20;97.70;;;;;;2063983;28;20018;-67
2021/06/03 03:20:13;;;;;;;2.22;2.10;;;20.20;98.30;;;;;;2063653;28;20031;-67
2021/06/03 03:21:14;;;;;;;2.65;2.38;;;20.20;98.30;;;;;;2063786;28;20022;-67
2021/06/03 03:22:15;;;;;;;2.58;2.38;;;20.10;97.90;;;;;;2063393;28;20027;-67
2021/06/03 03:23:15;;;;;;;2.40;2.20;;;20.10;98.60;;;;;;2064178;28;20018;-67
2021/06/03 03:24:16;;;;;;;2.17;2.00;;;20.20;99.20;;;;;;2063908;28;20084;-67
2021/06/03 03:25:17;;;;;;;3.05;2.42;;;20.10;97.90;;;;;;2063934;28;20026;-67
2021/06/03 03:26:18;;;;;;;2.20;2.10;;;20.10;97.60;;;;;;2062952;28;20033;-67
2021/06/03 03:27:18;;;;;;;2.72;2.50;;;20.10;97.70;;;;;;2064198;28;20501;-67
2021/06/03 03:28:19;;;;;;;3.20;2.50;;;20.10;98.10;;;;;;2063728;28;20041;-67
2021/06/03 03:29:20;;;;;;;2.75;2.30;;;20.10;99.10;;;;;;2064163;28;20027;-67
2021/06/03 03:30:22;;;;;;;2.80;2.50;;;20.10;98.10;;;;;;2063494;28;20038;-67
2021/06/03 03:31:25;;;;;;;2.85;2.65;;;20.10;98.90;;;;;;2064057;28;20038;-67
2021/06/03 03:32:25;;;;;;;2.75;2.33;;;20.10;98.70;;;;;;2063178;28;20030;-67
2021/06/03 03:33:26;;;;;;;3.20;2.58;;;20.10;97.70;;;;;;2063819;28;20027;-67
2021/06/03 03:34:27;;;;;;;3.92;2.30;;;20.10;98.70;;;;;;2063649;28;20034;-67
2021/06/03 03:35:28;;;;;;;4.90;2.30;;;20.10;99.50;;;;;;2064138;28;20025;-67
2021/06/03 03:36:29;;;;;;;2.30;2.13;;;20.00;99.10;;;;;;2062912;28;20103;-67
2021/06/03 03:37:30;;;;;;;4.22;2.58;;;20.10;98.40;;;;;;2062748;28;20431;-67
2021/06/03 03:38:31;;;;;;;2.33;2.10;;;20.10;99.20;;;;;;2063608;28;20030;-67
2021/06/03 03:39:31;;;;;;;2.88;2.30;;;20.10;99.00;;;;;;2063520;28;20470;-67
2021/06/03 03:40:32;;;;;;;2.70;2.50;;;20.00;97.60;;;;;;2063706;28;20105;-67
2021/06/03 03:41:33;;;;;;;5.85;2.83;;;20.10;99.30;;;;;;2063753;28;20022;-68
2021/06/03 03:42:34;;;;;;;2.75;2.47;;;20.00;99.10;;;;;;2062927;28;20035;-68
2021/06/03 03:43:35;;;;;;;2.75;2.47;;;20.00;98.40;;;;;;2063899;28;20497;-67
2021/06/03 03:44:36;;;;;;;2.80;2.47;;;20.00;98.80;;;;;;2063843;28;20034;-67
2021/06/03 03:45:36;;;;;;;2.63;2.42;;;20.00;98.80;;;;;;2063679;28;20026;-67
2021/06/03 03:46:37;;;;;;;4.57;2.55;;;20.00;99.40;;;;;;2062834;28;20035;-67
2021/06/03 03:47:38;;;;;;;2.90;2.60;;;20.00;99.60;;;;;;2063547;28;20426;-67
2021/06/03 03:48:38;;;;;;;3.40;2.60;;;20.00;99.40;;;;;;2064079;28;20058;-67
2021/06/03 03:49:39;;;;;;;3.05;2.60;;;20.00;98.80;;;;;;2063464;28;20164;-67
2021/06/03 03:50:39;;;;;;;2.58;2.38;;;20.00;99.70;;;;;;2063033;28;20030;-67
2021/06/03 03:51:40;;;;;;;2.63;2.17;;;20.00;99.00;;;;;;2055801;28;20032;-67
2021/06/03 03:52:42;;;;;;;2.75;2.55;;;20.00;99.30;;;;;;2061066;28;20027;-67
2021/06/03 03:53:43;;;;;;;3.40;2.55;;;20.00;99.70;;;;;;2063364;28;20033;-67
2021/06/03 03:54:44;;;;;;;8.82;2.97;;;20.00;99.90;;;;;;2063837;28;20022;-67
2021/06/03 03:55:45;;;;;;;3.70;2.38;;;20.00;99.90;;;;;;2063351;28;20054;-68
2021/06/03 03:56:45;;;;;;;3.28;2.70;;;20.00;99.90;;;;;;2063103;28;20573;-68
2021/06/03 03:57:48;;;;;;;3.30;2.55;;;20.00;99.90;;;;;;2063663;28;20485;-68
2021/06/03 03:58:49;;;;;;;3.45;2.50;;;20.00;99.90;;;;;;2063189;28;20027;-67
2021/06/03 03:59:50;;;;;;;3.85;2.40;;;19.90;99.80;;;;;;2063317;28;20045;-68
2021/06/03 04:00:51;;;;;;;4.95;2.80;;;19.90;99.90;;;;;;2063824;28;20033;-67
2021/06/03 04:01:53;;;;;;;3.47;2.33;;;19.90;99.90;;;;;;2063205;28;20026;-67
2021/06/03 04:02:54;;;;;;;3.72;2.72;;;19.90;99.90;;;;;;2062901;28;20032;-68
2021/06/03 04:05:51;;;;;;;2.97;2.28;;;20.00;99.90;;;;;;2062184;28;20389;-67
2021/06/03 04:06:52;;;;;;;2.60;2.40;;;19.90;99.90;;;;;;2062327;28;20490;-67
2021/06/03 04:07:52;;;;;;;2.58;2.20;;;19.90;99.90;;;;;;2062614;28;20532;-67
2021/06/03 04:08:53;;;;;;;4.10;2.90;;;19.90;99.70;;;;;;2063773;28;20441;-67
2021/06/03 04:09:54;;;;;;;3.00;2.58;;;19.90;99.90;;;;;;2063369;28;20041;-68
2021/06/03 04:10:54;;;;;;;3.75;2.65;;;19.90;99.90;;;;;;2063682;28;20026;-68
2021/06/03 04:11:55;;;;;;;2.85;2.53;;;19.90;99.90;;;;;;2063618;28;20037;-67
2021/06/03 04:12:56;;;;;;;2.88;2.40;;;20.00;99.90;;;;;;2063203;28;20019;-67
2021/06/03 04:13:57;;;;;;;2.78;2.58;;;20.00;99.90;;;;;;2062376;28;20027;-67
2021/06/03 04:14:57;;;;;;;2.38;2.17;;;20.00;99.90;;;;;;2062905;28;20093;-68
2021/06/03 04:15:58;;;;;;;3.78;2.42;;;20.00;99.90;;;;;;2063314;28;20046;-68
2021/06/03 04:16:58;;;;;;;2.58;2.38;;;20.00;99.90;;;;;;2061417;28;20030;-68
2021/06/03 04:17:59;;;;;;;5.32;2.67;;;20.00;99.90;;;;;;2056323;28;20387;-67
2021/06/03 04:19:00;;;;;;;3.28;2.53;;;20.00;99.90;;;;;;2063581;28;20020;-67
2021/06/03 04:20:01;;;;;;;2.85;2.60;;;20.00;99.90;;;;;;2063473;28;20030;-67
2021/06/03 04:21:02;;;;;;;4.15;2.65;;;20.00;99.90;;;;;;2063695;28;20031;-67
2021/06/03 04:22:03;;;;;;;3.25;2.60;;;20.00;99.90;;;;;;2063353;28;20025;-67
2021/06/03 04:23:04;;;;;;;2.50;2.17;;;20.00;99.90;;;;;;2062724;28;20106;-68
2021/06/03 04:24:07;;;;;;;2.63;2.20;;;20.00;99.90;;;;;;2063384;28;20023;-67
2021/06/03 04:25:08;;;;;;;2.35;2.15;;;20.10;99.90;;;;;;2063652;28;20019;-67
2021/06/03 04:26:09;;;;;;;2.47;2.28;;;20.00;99.90;;;;;;2063441;28;20386;-67
2021/06/03 04:27:09;;;;;;;3.45;2.42;;;20.10;99.90;;;;;;2062911;28;20101;-67
2021/06/03 04:28:10;;;;;;;2.50;2.30;;;20.00;99.90;;;;;;2063485;28;20084;-67
2021/06/03 04:29:11;;;;;;;2.90;2.65;;;20.10;99.90;;;;;;2063511;28;20091;-67
2021/06/03 04:30:15;;;;;;;3.13;2.60;;;20.10;99.90;;;;;;2063027;28;20066;-67
2021/06/03 04:31:16;;;;;;;2.97;2.60;;;20.00;99.90;;;;;;2062712;28;20025;-67
2021/06/03 04:32:17;;;;;;;3.78;2.90;;;20.10;99.90;;;;;;2061609;28;20026;-67
2021/06/03 04:33:21;;;;;;;2.40;2.30;;;20.10;99.90;;;;;;2069593;28;20037;-67
2021/06/03 04:34:21;;;;;;;2.60;2.40;;;20.10;99.90;;;;;;2070299;28;20084;-67
2021/06/03 04:35:25;;;;;;;2.70;2.40;;;20.10;99.90;;;;;;2062680;28;20018;-67
2021/06/03 04:36:26;;;;;;;2.72;2.53;;;20.10;99.90;;;;;;2062286;28;20493;-67
2021/06/03 04:37:27;;;;;;;2.33;2.05;;;20.10;99.90;;;;;;2055636;28;20113;-68
2021/06/03 04:38:28;;;;;;;2.50;2.30;;;20.10;99.90;;;;;;2063466;28;20019;-68
2021/06/03 04:39:29;;;;;;;2.45;2.30;;;20.10;99.90;;;;;;2062831;28;20058;-68
2021/06/03 04:40:30;;;;;;;2.53;2.33;;;20.10;99.90;;;;;;2063500;28;20500;-68
2021/06/03 04:41:30;;;;;;;3.67;2.58;;;20.10;99.90;;;;;;2063090;28;20030;-67
2021/06/03 04:42:31;;;;;;;2.45;2.25;;;20.10;99.90;;;;;;2062904;28;20042;-67
2021/06/03 04:43:32;;;;;;;2.42;2.22;;;20.10;99.90;;;;;;2063531;28;20110;-67
2021/06/03 04:44:33;;;;;;;2.15;2.00;;;20.20;99.90;;;;;;2063032;28;20090;-67
2021/06/03 04:45:36;;;;;;;2.25;2.10;;;20.20;99.90;;;;;;2063247;28;20026;-67
2021/06/03 04:46:37;;;;;;;3.30;2.78;;;20.20;99.90;;;;;;2062430;28;20036;-67
2021/06/03 04:47:37;;;;;;;2.28;2.10;;;20.20;99.90;;;;;;2063333;28;20073;-67
2021/06/03 04:48:38;;;;;;;3.83;2.53;;;20.20;99.90;;;;;;2062819;28;20492;-67
2021/06/03 04:49:39;;;;;;;2.65;1.88;;;20.30;99.90;;;;;;2070693;28;20030;-67
2021/06/03 04:50:40;;;;;;;2.22;2.10;;;20.30;99.90;;;;;;2070609;28;20049;-67
2021/06/03 04:51:41;;;;;;;1.95;1.85;;;20.30;99.90;;;;;;2063184;28;20586;-67
2021/06/03 04:52:42;;;;;;;2.63;2.03;;;20.40;99.90;;;;;;2062973;28;20050;-68
2021/06/03 04:53:42;;;;;;;2.40;2.03;;;20.40;99.90;;;;;;2062696;28;20600;-68
2021/06/03 04:54:44;;;;;;;1.83;1.50;;;20.40;99.90;;;;;;2063099;28;20030;-68
2021/06/03 04:55:46;;;;;;;2.80;2.22;;;20.50;99.90;;;;;;2070150;28;20049;-68
2021/06/03 04:56:46;;;;;;;2.67;1.73;;;20.60;99.90;;;;;;2069882;28;20093;-68
2021/06/03 04:57:48;;;;;;;1.83;1.73;;;20.70;99.90;;;;;;2063288;28;20023;-68
2021/06/03 04:58:49;;;;;;;2.17;1.70;;;20.80;99.90;;;;;;2063433;28;20033;-68
2021/06/03 04:59:49;;;;;;;2.20;2.00;;;20.80;99.90;;;;;;2063124;28;20030;-68
2021/06/03 05:00:50;;;;;;;1.70;1.60;;;20.90;99.90;;;;;;2063247;28;20466;-68
2021/06/03 05:01:51;;;;;;;2.85;2.08;;;21.00;99.90;;;;;;2062653;28;20585;-68
2021/06/03 05:02:52;;;;;;;5.78;2.03;;;21.10;99.90;;;;;;2062601;28;20501;-68
2021/06/03 05:03:53;;;;;;;8.93;2.45;;;21.20;99.90;;;;;;2063087;28;20041;-68
2021/06/03 05:04:54;;;;;;;1.77;1.67;;;21.20;99.90;;;;;;2062456;28;20037;-68
2021/06/03 05:05:54;;;;;;;2.00;1.90;;;21.30;99.90;;;;;;2062792;28;20030;-68
2021/06/03 05:06:55;;;;;;;2.83;1.80;;;21.40;99.90;;;;;;2060428;28;20027;-68
2021/06/03 05:07:56;;;;;;;4.30;1.73;;;21.50;99.90;;;;;;2063274;28;20030;-68
2021/06/03 05:08:57;;;;;;;1.73;1.60;;;21.60;99.90;;;;;;2063204;28;20038;-68
2021/06/03 05:09:58;;;;;;;1.95;1.75;;;21.60;99.90;;;;;;2063140;28;20403;-68
2021/06/03 05:10:58;;;;;;;3.75;1.77;;;21.70;99.90;;;;;;2062216;28;20101;-68
2021/06/03 05:11:59;;;;;;;1.90;1.70;;;21.80;99.70;;;;;;2062930;28;20031;-68
2021/06/03 05:13:00;;;;;;;1.92;1.63;;;21.80;98.80;;;;;;2062098;28;20587;-68
2021/06/03 05:14:00;;;;;;;3.25;1.50;;;21.90;99.40;;;;;;2063457;28;20029;-68
2021/06/03 05:15:02;;;;;;;1.83;1.70;;;22.00;99.00;;;;;;2062856;28;20065;-68
2021/06/03 05:16:03;;;;;;;1.73;1.58;;;22.10;98.90;;;;;;2063182;28;20035;-68
2021/06/03 05:17:04;;;;;;;2.47;1.80;;;22.00;98.70;;;;;;2062272;28;20065;-68
2021/06/03 05:18:05;;;;;;;2.80;1.48;;;22.10;98.70;;;;;;2063314;28;20412;-68
2021/06/03 05:19:05;;;;;;;1.73;1.63;;;22.10;98.20;;;;;;2063050;28;20105;-68
2021/06/03 05:20:09;;;;;;;3.22;1.38;;;22.20;97.70;;;;;;2063152;28;20339;-68
2021/06/03 05:21:09;;;;;;;2.90;1.75;;;22.30;97.40;;;;;;2062810;28;20043;-68
2021/06/03 05:22:10;;;;;;;1.55;1.42;;;22.30;96.30;;;;;;2062646;28;20523;-68
2021/06/03 05:23:10;;;;;;;1.50;1.40;;;22.30;96.70;;;;;;2062960;28;20062;-68
2021/06/03 05:24:11;;;;;;;1.95;1.38;;;22.40;96.90;;;;;;2062981;28;20050;-68
2021/06/03 05:25:14;;;;;;;2.00;1.48;;;22.40;97.00;;;;;;2062798;28;20037;-68
2021/06/03 05:26:15;;;;;;;2.88;1.63;;;22.40;96.40;;;;;;2062450;28;20187;-68